Dominia — ICFW — position and weather

sailwx.info

Track history (hours):
 
Tides and Currents Weather Stations Pressure Air Temp Water Temp Dewpoint Dewpoint Depression Visibility Wind Speed Wind Dir Waves Ship Positions

Dominia

Last reported at 2014-Nov-23 13:30 UTC. Time now 2014-Nov-26 08:50 UTC.
Position N 44°20' E 037°08'.

Length 176 m; draft 7.6 m.

Type: Ship (hazmat cat A). MMSI: 247273400.

Date/timePositionNaut miles runAvg speedWind from/ knotsBaromVisibWave heightAir tempDewpointWater temp
2014-Nov-23 13:30N 44°20' E 037°08'1313.2
2014-Nov-23 12:33N 44°25' E 037°24'1313.4
2014-Nov-23 11:33N 44°32' E 037°41'1110.8
2014-Nov-23 10:33N 44°40' E 037°50'4 4.2
2014-Nov-23 09:33N 44°44' E 037°47'0 0.0
2014-Nov-23 08:28N 44°44' E 037°47'0 0.0
2014-Nov-23 07:31N 44°44' E 037°47'0 0.0
2014-Nov-23 06:31N 44°44' E 037°47'0 0.0
2014-Nov-23 05:31N 44°44' E 037°47'0 0.0
2014-Nov-23 04:31N 44°44' E 037°47'0 0.0
2014-Nov-23 03:31N 44°44' E 037°47'0 0.0
2014-Nov-23 02:31N 44°44' E 037°47'0 0.0
2014-Nov-23 01:31N 44°44' E 037°47'0 0.0
2014-Nov-23 00:31N 44°44' E 037°47'0 0.0
2014-Nov-22 23:31N 44°44' E 037°47'0 0.0
2014-Nov-22 22:31N 44°44' E 037°47'0 0.0
2014-Nov-22 21:31N 44°44' E 037°47'0 0.0
2014-Nov-22 20:31N 44°44' E 037°47'0 0.0
2014-Nov-22 19:31N 44°44' E 037°47'0 0.0
2014-Nov-22 18:31N 44°44' E 037°47'0 0.0
2014-Nov-22 17:31N 44°44' E 037°47'0 0.0
2014-Nov-22 16:31N 44°44' E 037°47'0 0.0
2014-Nov-22 15:31N 44°44' E 037°47'0 0.0
2014-Nov-22 14:31N 44°44' E 037°47'0 0.0
2014-Nov-22 13:31N 44°44' E 037°47'0 0.0
2014-Nov-22 12:31N 44°44' E 037°47'0 0.0
2014-Nov-22 11:31N 44°44' E 037°47'0 0.0
2014-Nov-22 10:31N 44°44' E 037°47'0 0.0
2014-Nov-22 09:31N 44°44' E 037°47'0 0.0
2014-Nov-22 08:31N 44°44' E 037°47'0 0.0
2014-Nov-22 07:31N 44°44' E 037°47'0 0.0
2014-Nov-22 06:31N 44°44' E 037°47'0 0.0
2014-Nov-22 05:10N 44°44' E 037°47'0 0.0
2014-Nov-22 04:31N 44°44' E 037°47'0 0.0
2014-Nov-22 03:31N 44°44' E 037°47'0 0.0
2014-Nov-22 02:31N 44°44' E 037°47'0 0.0
2014-Nov-22 01:31N 44°44' E 037°47'0 0.0
2014-Nov-22 00:31N 44°44' E 037°47'0 0.0
2014-Nov-21 23:31N 44°44' E 037°47'0 0.0
2014-Nov-21 22:28N 44°44' E 037°47'0 0.0
2014-Nov-21 21:31N 44°44' E 037°47'0 0.0
2014-Nov-21 20:31N 44°44' E 037°47'0 0.0
2014-Nov-21 19:31N 44°44' E 037°47'0 0.0
2014-Nov-21 18:31N 44°44' E 037°47'0 0.0
2014-Nov-21 17:31N 44°44' E 037°47'0 0.0
2014-Nov-20 11:28N 44°44' E 037°47'0 0.0
2014-Nov-20 10:31N 44°44' E 037°47'0 0.0
2014-Nov-20 09:31N 44°44' E 037°47'0 0.0
2014-Nov-20 08:28N 44°44' E 037°47'0 0.0
2014-Nov-20 07:31N 44°44' E 037°47'0 0.0
2014-Nov-20 06:31N 44°44' E 037°47'0 0.0
2014-Nov-20 05:31N 44°44' E 037°47'0 0.0
2014-Nov-20 04:31N 44°44' E 037°47'0 0.0
2014-Nov-20 03:31N 44°44' E 037°47'0 0.0
2014-Nov-20 02:31N 44°44' E 037°47'0 0.0
2014-Nov-20 01:31N 44°44' E 037°47'0 0.0
2014-Nov-20 00:31N 44°44' E 037°47'0 0.0
2014-Nov-19 23:31N 44°44' E 037°47'0 0.2
2014-Nov-19 22:33N 44°44' E 037°47'5 5.5
2014-Nov-19 21:33N 44°39' E 037°51'7 6.7
2014-Nov-19 20:33N 44°32' E 037°49'1 0.7
2014-Nov-19 19:33N 44°32' E 037°49'0 0.3
2014-Nov-19 18:33N 44°31' E 037°49'0 0.5
2014-Nov-19 17:33N 44°31' E 037°49'1 0.5
2014-Nov-19 16:33N 44°30' E 037°50'0 0.5
2014-Nov-19 15:33N 44°30' E 037°50'1 0.6
2014-Nov-19 14:33N 44°29' E 037°50'1 0.7
2014-Nov-19 13:33N 44°29' E 037°51'1 0.7
2014-Nov-19 12:33N 44°28' E 037°51'1 0.6
2014-Nov-19 11:33N 44°28' E 037°51'1 0.5
2014-Nov-19 10:33N 44°27' E 037°51'5 4.8
2014-Nov-19 09:33N 44°31' E 037°48'3 3.4
2014-Nov-19 08:33N 44°34' E 037°45'1 1.1
2014-Nov-19 07:33N 44°33' E 037°46'1 1.0
2014-Nov-19 06:33N 44°32' E 037°46'1 1.0
2014-Nov-19 05:33N 44°31' E 037°47'1 0.6
2014-Nov-19 04:33N 44°31' E 037°48'1 0.6
2014-Nov-19 03:33N 44°30' E 037°48'1 0.8
2014-Nov-19 02:33N 44°30' E 037°49'0 0.2
2014-Nov-19 01:33N 44°30' E 037°49'1010.0
2014-Nov-19 00:33N 44°27' E 037°36'38912.9
2014-Nov-17 18:26N 41°27' E 029°44'1213.1
2014-Nov-17 17:33N 41°22' E 029°30'1313.1
2014-Nov-17 16:33N 41°16' E 029°14'  
Track history (hours):
 
Tides and Currents Weather Stations Pressure Air Temp Water Temp Dewpoint Dewpoint Depression Visibility Wind Speed Wind Dir Waves Ship Positions

Dominia

Last reported at 2014-Nov-23 13:30 UTC. Time now 2014-Nov-26 08:50 UTC.
Position N 44°20' E 037°08'.

Length 176 m; draft 7.6 m.

Type: Ship (hazmat cat A). MMSI: 247273400.

Date/timePositionNaut miles runAvg speedWind from/ knotsBaromVisibWave heightAir tempDewpointWater temp
2014-Nov-23 13:30N 44°20' E 037°08'1313.2
2014-Nov-23 12:33N 44°25' E 037°24'1313.4
2014-Nov-23 11:33N 44°32' E 037°41'1110.8
2014-Nov-23 10:33N 44°40' E 037°50'4 4.2
2014-Nov-23 09:33N 44°44' E 037°47'0 0.0
2014-Nov-23 08:28N 44°44' E 037°47'0 0.0
2014-Nov-23 07:31N 44°44' E 037°47'0 0.0
2014-Nov-23 06:31N 44°44' E 037°47'0 0.0
2014-Nov-23 05:31N 44°44' E 037°47'0 0.0
2014-Nov-23 04:31N 44°44' E 037°47'0 0.0
2014-Nov-23 03:31N 44°44' E 037°47'0 0.0
2014-Nov-23 02:31N 44°44' E 037°47'0 0.0
2014-Nov-23 01:31N 44°44' E 037°47'0 0.0
2014-Nov-23 00:31N 44°44' E 037°47'0 0.0
2014-Nov-22 23:31N 44°44' E 037°47'0 0.0
2014-Nov-22 22:31N 44°44' E 037°47'0 0.0
2014-Nov-22 21:31N 44°44' E 037°47'0 0.0
2014-Nov-22 20:31N 44°44' E 037°47'0 0.0
2014-Nov-22 19:31N 44°44' E 037°47'0 0.0
2014-Nov-22 18:31N 44°44' E 037°47'0 0.0
2014-Nov-22 17:31N 44°44' E 037°47'0 0.0
2014-Nov-22 16:31N 44°44' E 037°47'0 0.0
2014-Nov-22 15:31N 44°44' E 037°47'0 0.0
2014-Nov-22 14:31N 44°44' E 037°47'0 0.0
2014-Nov-22 13:31N 44°44' E 037°47'0 0.0
2014-Nov-22 12:31N 44°44' E 037°47'0 0.0
2014-Nov-22 11:31N 44°44' E 037°47'0 0.0
2014-Nov-22 10:31N 44°44' E 037°47'0 0.0
2014-Nov-22 09:31N 44°44' E 037°47'0 0.0
2014-Nov-22 08:31N 44°44' E 037°47'0 0.0
2014-Nov-22 07:31N 44°44' E 037°47'0 0.0
2014-Nov-22 06:31N 44°44' E 037°47'0 0.0
2014-Nov-22 05:10N 44°44' E 037°47'0 0.0
2014-Nov-22 04:31N 44°44' E 037°47'0 0.0
2014-Nov-22 03:31N 44°44' E 037°47'0 0.0
2014-Nov-22 02:31N 44°44' E 037°47'0 0.0
2014-Nov-22 01:31N 44°44' E 037°47'0 0.0
2014-Nov-22 00:31N 44°44' E 037°47'0 0.0
2014-Nov-21 23:31N 44°44' E 037°47'0 0.0
2014-Nov-21 22:28N 44°44' E 037°47'0 0.0
2014-Nov-21 21:31N 44°44' E 037°47'0 0.0
2014-Nov-21 20:31N 44°44' E 037°47'0 0.0
2014-Nov-21 19:31N 44°44' E 037°47'0 0.0
2014-Nov-21 18:31N 44°44' E 037°47'0 0.0
2014-Nov-21 17:31N 44°44' E 037°47'0 0.0
2014-Nov-20 11:28N 44°44' E 037°47'0 0.0
2014-Nov-20 10:31N 44°44' E 037°47'0 0.0
2014-Nov-20 09:31N 44°44' E 037°47'0 0.0
2014-Nov-20 08:28N 44°44' E 037°47'0 0.0
2014-Nov-20 07:31N 44°44' E 037°47'0 0.0
2014-Nov-20 06:31N 44°44' E 037°47'0 0.0
2014-Nov-20 05:31N 44°44' E 037°47'0 0.0
2014-Nov-20 04:31N 44°44' E 037°47'0 0.0
2014-Nov-20 03:31N 44°44' E 037°47'0 0.0
2014-Nov-20 02:31N 44°44' E 037°47'0 0.0
2014-Nov-20 01:31N 44°44' E 037°47'0 0.0
2014-Nov-20 00:31N 44°44' E 037°47'0 0.0
2014-Nov-19 23:31N 44°44' E 037°47'0 0.2
2014-Nov-19 22:33N 44°44' E 037°47'5 5.5
2014-Nov-19 21:33N 44°39' E 037°51'7 6.7
2014-Nov-19 20:33N 44°32' E 037°49'1 0.7
2014-Nov-19 19:33N 44°32' E 037°49'0 0.3
2014-Nov-19 18:33N 44°31' E 037°49'0 0.5
2014-Nov-19 17:33N 44°31' E 037°49'1 0.5
2014-Nov-19 16:33N 44°30' E 037°50'0 0.5
2014-Nov-19 15:33N 44°30' E 037°50'1 0.6
2014-Nov-19 14:33N 44°29' E 037°50'1 0.7
2014-Nov-19 13:33N 44°29' E 037°51'1 0.7
2014-Nov-19 12:33N 44°28' E 037°51'1 0.6
2014-Nov-19 11:33N 44°28' E 037°51'1 0.5
2014-Nov-19 10:33N 44°27' E 037°51'5 4.8
2014-Nov-19 09:33N 44°31' E 037°48'3 3.4
2014-Nov-19 08:33N 44°34' E 037°45'1 1.1
2014-Nov-19 07:33N 44°33' E 037°46'1 1.0
2014-Nov-19 06:33N 44°32' E 037°46'1 1.0
2014-Nov-19 05:33N 44°31' E 037°47'1 0.6
2014-Nov-19 04:33N 44°31' E 037°48'1 0.6
2014-Nov-19 03:33N 44°30' E 037°48'1 0.8
2014-Nov-19 02:33N 44°30' E 037°49'0 0.2
2014-Nov-19 01:33N 44°30' E 037°49'1010.0
2014-Nov-19 00:33N 44°27' E 037°36'38912.9
2014-Nov-17 18:26N 41°27' E 029°44'1213.1
2014-Nov-17 17:33N 41°22' E 029°30'1313.1
2014-Nov-17 16:33N 41°16' E 029°14'  

Dump ship's entire track history